createdAt,value
2017-09-28T00:01:59.688Z,12.09
2017-09-28T00:04:29.619Z,12.08
2017-09-28T00:06:59.465Z,12.04
2017-09-28T00:09:30.311Z,11.95
2017-09-28T00:11:59.789Z,11.93
2017-09-28T00:14:29.714Z,11.91
2017-09-28T00:16:59.521Z,11.88
2017-09-28T00:19:29.111Z,11.88
2017-09-28T00:21:59.834Z,11.87
2017-09-28T00:24:29.457Z,11.84
2017-09-28T00:26:59.387Z,11.85
2017-09-28T00:29:29.391Z,11.86
2017-09-28T00:31:59.303Z,11.39
2017-09-28T00:34:28.996Z,11.53
2017-09-28T00:36:59.611Z,11.59
2017-09-28T00:39:29.162Z,11.59
2017-09-28T00:41:59.564Z,11.57
2017-09-28T00:44:29.136Z,11.58
2017-09-28T00:47:00.490Z,11.55
2017-09-28T00:49:30.201Z,11.53
2017-09-28T00:52:00.050Z,11.50
2017-09-28T00:54:29.998Z,11.38
2017-09-28T00:56:59.619Z,11.39
2017-09-28T00:59:29.166Z,11.40
2017-09-28T01:02:00.237Z,10.94
2017-09-28T01:04:29.954Z,10.97
2017-09-28T01:06:59.730Z,11.17
2017-09-28T01:09:30.022Z,11.24
2017-09-28T01:11:59.852Z,11.25
2017-09-28T01:14:29.388Z,11.27
2017-09-28T01:16:59.641Z,11.24
2017-09-28T01:19:29.140Z,11.24
2017-09-28T01:21:59.712Z,11.23
2017-09-28T01:24:29.833Z,11.22
2017-09-28T01:26:59.741Z,11.23
2017-09-28T01:29:29.333Z,11.24
2017-09-28T01:31:59.738Z,11.24
2017-09-28T01:34:29.514Z,11.22
2017-09-28T01:36:59.564Z,11.13
2017-09-28T01:39:29.560Z,11.07
2017-09-28T01:41:59.423Z,11.07
2017-09-28T01:44:28.827Z,11.05
2017-09-28T01:46:59.345Z,11.04
2017-09-28T01:49:29.022Z,10.99
2017-09-28T01:52:00.403Z,10.94
2017-09-28T01:54:30.341Z,10.94
2017-09-28T01:57:00.045Z,10.95
2017-09-28T01:59:29.625Z,10.94
2017-09-28T02:02:00.557Z,10.96
2017-09-28T02:04:30.170Z,10.92
2017-09-28T02:07:00.089Z,10.90
2017-09-28T02:09:30.013Z,10.88
2017-09-28T02:11:59.543Z,10.86
2017-09-28T02:14:29.211Z,10.81
2017-09-28T02:16:59.361Z,10.77
2017-09-28T02:19:28.809Z,10.74
2017-09-28T02:21:59.285Z,10.68
2017-09-28T02:24:29.045Z,10.63
2017-09-28T02:27:00.016Z,10.63
2017-09-28T02:29:29.544Z,10.67
2017-09-28T02:31:59.186Z,10.52
2017-09-28T02:34:28.668Z,10.55
2017-09-28T02:37:00.355Z,10.60
2017-09-28T02:39:29.870Z,10.44
2017-09-28T02:41:59.499Z,10.51
2017-09-28T02:44:28.927Z,10.53
2017-09-28T02:46:59.297Z,10.56
2017-09-28T02:49:29.039Z,10.53
2017-09-28T02:51:58.947Z,10.28
2017-09-28T02:54:28.798Z,10.36
2017-09-28T02:56:59.738Z,10.42
2017-09-28T02:59:29.127Z,10.44
2017-09-28T03:01:59.218Z,10.45
2017-09-28T03:04:28.746Z,10.44
2017-09-28T03:06:58.888Z,10.40
2017-09-28T03:09:28.794Z,10.42
2017-09-28T03:12:02.611Z,10.45
2017-09-28T03:14:32.064Z,10.47
2017-09-28T03:17:01.958Z,10.50
2017-09-28T03:19:31.385Z,10.53
2017-09-28T03:22:00.886Z,10.58
2017-09-28T03:24:30.384Z,10.60
2017-09-28T03:27:00.489Z,10.65
2017-09-28T03:29:30.014Z,10.69
2017-09-28T03:31:59.771Z,10.74
2017-09-28T03:34:29.455Z,10.78
2017-09-28T03:36:59.455Z,10.80
2017-09-28T03:39:28.967Z,10.85
2017-09-28T03:41:59.580Z,10.87
2017-09-28T03:44:28.965Z,10.86
2017-09-28T03:46:59.519Z,10.86
2017-09-28T03:49:29.042Z,10.84
2017-09-28T03:51:59.338Z,10.77
2017-09-28T03:54:29.143Z,10.76
2017-09-28T03:56:59.090Z,10.63
2017-09-28T03:59:28.373Z,10.63
2017-09-28T04:01:59.268Z,10.52
2017-09-28T04:04:28.863Z,10.54
2017-09-28T04:06:59.922Z,10.62
2017-09-28T04:09:29.586Z,10.68
2017-09-28T04:20:41.098Z,10.71
2017-09-28T04:23:12.389Z,10.68
2017-09-28T04:25:46.191Z,10.62
2017-09-28T04:28:24.954Z,10.51
2017-09-28T04:30:59.531Z,10.38
2017-09-28T04:33:30.755Z,10.42
2017-09-28T04:36:01.379Z,10.43
2017-09-28T04:38:33.012Z,10.39
2017-09-28T04:41:03.986Z,10.38
2017-09-28T04:43:35.010Z,10.38
2017-09-28T04:46:06.573Z,10.45
2017-09-28T04:48:39.399Z,10.44
2017-09-28T04:51:11.631Z,10.46
2017-09-28T04:53:43.077Z,10.51
2017-09-28T04:56:18.004Z,10.55
2017-09-28T04:58:49.805Z,10.47
2017-09-28T05:01:31.790Z,10.49
2017-09-28T05:04:05.059Z,10.48
2017-09-28T05:06:50.434Z,10.48
2017-09-28T05:09:28.513Z,10.58
2017-09-28T05:12:01.662Z,10.65
2017-09-28T05:14:33.716Z,10.70
2017-09-28T05:17:07.146Z,10.69
2017-09-28T05:19:40.679Z,10.73
2017-09-28T05:22:15.649Z,10.69
2017-09-28T05:24:48.161Z,10.63
2017-09-28T05:27:23.977Z,10.64
2017-09-28T05:29:55.605Z,10.70
2017-09-28T05:32:27.769Z,10.77
2017-09-28T05:35:00.293Z,10.78
2017-09-28T05:37:32.656Z,10.81
2017-09-28T05:40:06.816Z,10.71
2017-09-28T05:42:46.581Z,10.86
2017-09-28T05:45:25.822Z,10.98
2017-09-28T05:47:56.989Z,10.98
2017-09-28T05:50:31.696Z,11.00
2017-09-28T05:53:09.846Z,11.11
2017-09-28T05:55:44.238Z,11.20
2017-09-28T05:58:16.890Z,11.27
2017-09-28T06:00:53.235Z,11.31
2017-09-28T06:03:25.040Z,11.26
2017-09-28T06:06:08.500Z,11.35
2017-09-28T06:08:39.852Z,11.22
2017-09-28T06:11:11.267Z,11.29
2017-09-28T06:13:42.551Z,11.27
2017-09-28T06:18:55.552Z,11.35
2017-09-28T06:21:30.735Z,11.39
2017-09-28T06:24:11.008Z,11.45
2017-09-28T06:26:42.689Z,11.44
2017-09-28T06:29:19.262Z,11.46
2017-09-28T06:31:55.587Z,11.49
2017-09-28T06:34:29.271Z,11.55
2017-09-28T06:37:00.055Z,11.55
2017-09-28T06:39:32.404Z,11.62
2017-09-28T06:42:03.910Z,11.68
2017-09-28T06:44:39.482Z,11.79
2017-09-28T06:47:16.635Z,11.85
2017-09-28T06:49:53.419Z,11.80
2017-09-28T06:52:25.649Z,11.79
2017-09-28T06:54:58.529Z,11.65
2017-09-28T06:57:29.381Z,11.66
2017-09-28T07:00:00.188Z,11.65
2017-09-28T07:02:31.798Z,11.70
2017-09-28T07:05:03.370Z,11.94
2017-09-28T07:07:35.330Z,11.93
2017-09-28T07:10:13.567Z,12.13
2017-09-28T07:12:46.818Z,12.18
2017-09-28T07:15:20.796Z,12.21
2017-09-28T07:17:56.936Z,12.01
2017-09-28T07:20:28.374Z,11.99
2017-09-28T07:23:01.201Z,11.83
2017-09-28T07:25:34.299Z,12.16
2017-09-28T07:28:05.694Z,11.91
2017-09-28T07:30:36.505Z,11.84
2017-09-28T07:33:09.111Z,11.97
2017-09-28T07:35:39.806Z,11.63
2017-09-28T07:38:10.684Z,12.07
2017-09-28T07:40:45.049Z,12.24
2017-09-28T07:43:34.410Z,12.48
2017-09-28T07:46:12.245Z,12.60
2017-09-28T07:48:52.562Z,12.39
2017-09-28T07:54:52.654Z,12.55
2017-09-28T08:03:18.995Z,13.02
2017-09-28T08:05:55.096Z,13.13
2017-09-28T08:08:37.949Z,13.24
2017-09-28T08:11:22.849Z,13.53
2017-09-28T08:20:16.586Z,13.94
2017-09-28T08:22:59.803Z,14.07
2017-09-28T08:25:42.574Z,14.38
2017-09-28T08:28:24.214Z,14.05
2017-09-28T08:34:27.442Z,14.73
2017-09-28T08:40:09.090Z,14.08
2017-09-28T08:42:54.204Z,14.50
2017-09-28T08:45:26.063Z,14.46
2017-09-28T08:48:02.944Z,14.47
2017-09-28T08:50:39.664Z,14.39
2017-09-28T08:53:28.782Z,14.81
2017-09-28T08:56:08.307Z,14.78
2017-09-28T08:59:14.920Z,14.84
2017-09-28T09:01:58.193Z,14.82
2017-09-28T09:04:40.153Z,15.06
2017-09-28T09:10:24.845Z,15.02
2017-09-28T09:12:59.037Z,14.85
2017-09-28T09:15:38.240Z,14.46
2017-09-28T09:21:02.570Z,14.75
2017-09-28T09:23:53.119Z,15.26
2017-09-28T09:26:38.273Z,15.24
2017-09-28T09:29:15.639Z,15.05
2017-09-28T09:31:59.976Z,14.79
2017-09-28T09:34:33.710Z,14.41
2017-09-28T09:37:16.523Z,14.47
2017-09-28T09:39:50.221Z,14.51
2017-09-28T09:42:26.491Z,14.46
2017-09-28T09:45:10.020Z,14.78
2017-09-28T09:47:41.875Z,14.76
2017-09-28T09:50:24.408Z,15.28
2017-09-28T09:56:12.113Z,14.99
2017-09-28T09:58:55.031Z,14.64
2017-09-28T10:01:32.743Z,14.91
2017-09-28T10:04:15.132Z,14.84
2017-09-28T10:07:05.030Z,14.68
2017-09-28T10:09:54.050Z,14.57
2017-09-28T10:12:53.027Z,14.60
2017-09-28T10:15:58.206Z,15.09
2017-09-28T10:18:37.999Z,14.98
2017-09-28T10:21:21.710Z,15.27
2017-09-28T10:24:08.615Z,15.52
2017-09-28T10:27:04.171Z,15.72
2017-09-28T10:29:38.166Z,15.91
2017-09-28T10:35:03.981Z,16.32
2017-09-28T10:37:43.492Z,16.45
2017-09-28T10:40:34.198Z,16.44
2017-09-28T10:46:22.680Z,16.23
2017-09-28T10:49:03.976Z,16.20
2017-09-28T10:51:47.806Z,16.41
2017-09-28T10:54:34.843Z,16.15
2017-09-28T10:57:09.977Z,16.55
2017-09-28T10:59:43.984Z,16.22
2017-09-28T11:02:17.576Z,16.47
2017-09-28T11:04:48.461Z,16.42
2017-09-28T11:07:19.819Z,16.50
2017-09-28T11:09:51.459Z,16.58
2017-09-28T11:12:28.699Z,17.17
2017-09-28T11:15:01.950Z,17.41
2017-09-28T11:17:34.540Z,17.72
2017-09-28T11:20:08.250Z,17.80
2017-09-28T11:22:40.023Z,18.01
2017-09-28T11:25:17.856Z,17.91
2017-09-28T11:27:50.167Z,18.28
2017-09-28T11:30:23.553Z,17.60
2017-09-28T11:32:57.497Z,18.03
2017-09-28T11:35:28.870Z,17.97
2017-09-28T11:38:00.824Z,17.75
2017-09-28T11:40:32.166Z,17.80
2017-09-28T11:43:05.453Z,17.76
2017-09-28T11:45:38.458Z,17.72
2017-09-28T11:48:09.894Z,17.84
2017-09-28T11:50:43.066Z,18.18
2017-09-28T11:53:15.302Z,17.90
2017-09-28T11:55:50.959Z,18.02
2017-09-28T11:58:54.726Z,17.70
2017-09-28T12:01:34.775Z,17.97
2017-09-28T12:04:11.255Z,17.82
2017-09-28T12:06:53.422Z,17.88
2017-09-28T12:09:26.065Z,18.01
2017-09-28T12:12:00.956Z,18.19
2017-09-28T12:14:33.990Z,18.34
2017-09-28T12:17:12.422Z,18.36
2017-09-28T12:19:44.633Z,18.52
2017-09-28T12:22:18.081Z,18.53
2017-09-28T12:24:51.413Z,18.32
2017-09-28T12:27:23.344Z,18.50
2017-09-28T12:30:11.043Z,18.10
2017-09-28T12:32:43.930Z,18.36
2017-09-28T12:35:16.366Z,18.42
2017-09-28T12:37:50.212Z,18.47
2017-09-28T12:40:23.982Z,18.66
2017-09-28T12:42:56.735Z,18.59
2017-09-28T12:45:30.037Z,18.63
2017-09-28T12:48:00.995Z,18.63
2017-09-28T12:50:36.673Z,18.52
2017-09-28T12:53:08.913Z,18.59
2017-09-28T12:55:41.117Z,18.37
2017-09-28T12:58:13.902Z,18.54
2017-09-28T13:00:46.492Z,18.79
2017-09-28T13:03:19.040Z,18.86
2017-09-28T13:05:50.947Z,18.80
2017-09-28T13:08:26.983Z,19.02
2017-09-28T13:11:10.352Z,18.90
2017-09-28T13:13:46.211Z,18.70
2017-09-28T13:16:21.755Z,18.69
2017-09-28T13:19:01.416Z,18.53
2017-09-28T13:21:37.722Z,18.64
2017-09-28T13:24:16.618Z,18.57
2017-09-28T13:26:51.616Z,18.65
2017-09-28T13:29:31.801Z,18.69
2017-09-28T13:32:06.520Z,18.68
2017-09-28T13:34:52.256Z,18.64
2017-09-28T13:37:35.374Z,18.64
2017-09-28T13:40:17.686Z,18.80
2017-09-28T13:42:57.637Z,18.81
2017-09-28T13:45:32.701Z,18.89
2017-09-28T13:48:19.757Z,18.85
2017-09-28T13:51:01.015Z,18.92
2017-09-28T13:53:50.845Z,18.86
2017-09-28T13:56:35.908Z,18.89
2017-09-28T13:59:14.553Z,18.91
2017-09-28T14:01:49.150Z,18.72
2017-09-28T14:04:38.487Z,18.86
2017-09-28T14:07:20.835Z,19.05
2017-09-28T14:10:06.109Z,19.12
2017-09-28T14:12:48.327Z,19.05
2017-09-28T14:15:25.554Z,19.16
2017-09-28T14:17:56.899Z,19.38
2017-09-28T14:20:30.751Z,19.11
2017-09-28T14:23:11.478Z,19.11
2017-09-28T14:25:53.286Z,19.12
2017-09-28T14:28:25.331Z,18.96
2017-09-28T14:30:59.167Z,19.00
2017-09-28T14:33:34.109Z,18.99
2017-09-28T14:36:06.750Z,19.11
2017-09-28T14:38:42.527Z,19.10
2017-09-28T14:41:13.626Z,19.05
2017-09-28T14:43:45.741Z,19.00
2017-09-28T14:46:18.657Z,19.07
2017-09-28T14:48:50.329Z,19.15
2017-09-28T14:51:23.747Z,19.17
2017-09-28T14:53:55.739Z,19.14
2017-09-28T14:56:29.745Z,19.18
2017-09-28T14:59:08.404Z,19.15
2017-09-28T15:01:47.423Z,19.21
2017-09-28T15:04:19.984Z,19.24
2017-09-28T15:06:53.576Z,19.19
2017-09-28T15:09:34.748Z,19.24
2017-09-28T15:12:11.005Z,19.19
2017-09-28T15:14:52.425Z,19.16
2017-09-28T15:17:24.532Z,19.16
2017-09-28T15:20:10.475Z,19.04
2017-09-28T15:22:48.590Z,18.99
2017-09-28T15:25:36.808Z,19.00
2017-09-28T15:28:20.492Z,19.11
2017-09-28T15:30:57.977Z,19.10
2017-09-28T15:33:45.090Z,19.10
2017-09-28T15:36:21.933Z,19.01
2017-09-28T15:39:08.672Z,18.84
2017-09-28T15:41:46.991Z,18.80
2017-09-28T15:44:28.035Z,18.73
2017-09-28T15:47:09.089Z,18.65
2017-09-28T15:49:51.378Z,18.67
2017-09-28T15:52:29.902Z,18.67
2017-09-28T16:03:42.391Z,18.50
2017-09-28T16:09:07.422Z,18.38
2017-09-28T16:14:36.359Z,18.30
2017-09-28T16:17:25.315Z,18.23
2017-09-28T16:20:06.687Z,18.17
2017-09-28T16:22:49.916Z,18.04
2017-09-28T16:25:28.531Z,18.05
2017-09-28T16:28:09.532Z,18.06
2017-09-28T16:30:49.207Z,18.13
2017-09-28T16:33:26.328Z,18.07
2017-09-28T16:36:05.744Z,18.20
2017-09-28T16:41:32.272Z,18.23
2017-09-28T16:44:03.849Z,18.14
2017-09-28T16:46:37.497Z,18.10
2017-09-28T16:49:10.541Z,18.14
2017-09-28T16:51:52.261Z,18.16
2017-09-28T16:54:30.460Z,18.11
2017-09-28T16:57:02.270Z,18.05
2017-09-28T16:59:36.648Z,17.99
2017-09-28T17:02:14.132Z,17.98
2017-09-28T17:04:47.694Z,17.65
2017-09-28T17:07:24.180Z,17.38
2017-09-28T17:09:57.522Z,17.62
2017-09-28T17:12:31.258Z,17.55
2017-09-28T17:15:06.841Z,17.58
2017-09-28T17:17:50.042Z,17.63
2017-09-28T17:20:26.090Z,17.58
2017-09-28T17:23:05.580Z,17.55
2017-09-28T17:25:42.912Z,17.51
2017-09-28T17:28:17.941Z,17.32
2017-09-28T17:30:55.234Z,17.38
2017-09-28T17:33:35.980Z,17.35
2017-09-28T17:36:14.560Z,17.30
2017-09-28T17:38:56.705Z,17.20
2017-09-28T17:41:34.174Z,17.18
2017-09-28T17:44:10.972Z,17.22
2017-09-28T17:46:52.603Z,17.13
2017-09-28T17:49:29.020Z,17.17
2017-09-28T17:52:05.428Z,17.16
2017-09-28T17:54:43.644Z,17.10
2017-09-28T17:57:22.575Z,16.84
2017-09-28T18:00:12.545Z,16.76
2017-09-28T18:02:51.870Z,16.75
2017-09-28T18:05:36.573Z,16.75
2017-09-28T18:08:10.119Z,16.67
2017-09-28T18:10:49.631Z,16.61
2017-09-28T18:14:27.833Z,16.57
2017-09-28T18:17:06.830Z,16.45
2017-09-28T18:19:47.410Z,16.40
2017-09-28T18:22:30.832Z,16.35
2017-09-28T18:25:10.997Z,16.08
2017-09-28T18:27:51.564Z,16.07
2017-09-28T18:33:29.093Z,16.31
2017-09-28T18:36:05.810Z,16.39
2017-09-28T18:38:45.092Z,16.43
2017-09-28T18:41:28.631Z,16.44
2017-09-28T18:46:58.710Z,16.36
2017-09-28T18:49:47.406Z,16.39
2017-09-28T18:52:23.774Z,16.40
2017-09-28T18:55:00.837Z,16.45
2017-09-28T18:57:41.274Z,16.49
2017-09-28T19:00:17.113Z,16.48
2017-09-28T19:02:55.706Z,16.45
2017-09-28T19:05:36.842Z,16.33
2017-09-28T19:08:23.836Z,16.21
2017-09-28T19:11:05.356Z,16.19
2017-09-28T19:13:43.001Z,16.13
2017-09-28T19:16:22.773Z,16.11
2017-09-28T19:19:00.553Z,16.11
2017-09-28T19:21:44.438Z,16.10
2017-09-28T19:24:23.159Z,16.18
2017-09-28T19:30:18.819Z,16.07
2017-09-28T19:33:01.814Z,16.08
2017-09-28T19:38:42.354Z,15.92
2017-09-28T19:41:38.177Z,15.81
2017-09-28T19:47:11.293Z,15.89
2017-09-28T19:49:47.155Z,15.89
2017-09-28T19:52:28.309Z,15.74
2017-09-28T19:55:14.670Z,15.81
2017-09-28T19:57:51.164Z,15.91
2017-09-28T20:00:31.829Z,15.95
2017-09-28T20:03:12.287Z,15.97
2017-09-28T20:05:49.204Z,16.00
2017-09-28T20:08:26.818Z,16.00
2017-09-28T20:11:04.731Z,16.02
2017-09-28T20:13:44.522Z,16.02
2017-09-28T20:16:20.498Z,15.96
2017-09-28T20:18:55.979Z,15.92
2017-09-28T20:21:29.881Z,15.89
2017-09-28T20:24:06.586Z,15.77
2017-09-28T20:26:42.975Z,15.88
2017-09-28T20:29:22.459Z,15.75
2017-09-28T20:32:01.432Z,15.79
2017-09-28T20:34:36.128Z,15.80
2017-09-28T20:37:11.782Z,15.75
2017-09-28T20:39:45.321Z,15.79
2017-09-28T20:42:21.963Z,15.76
2017-09-28T20:45:04.502Z,15.67
2017-09-28T20:47:48.812Z,15.70
2017-09-28T20:50:23.079Z,15.73
2017-09-28T20:52:57.392Z,15.70
2017-09-28T20:55:33.733Z,15.73
2017-09-28T20:58:14.668Z,15.73
2017-09-28T21:01:00.739Z,15.72
2017-09-28T21:03:39.021Z,15.65
2017-09-28T21:06:13.739Z,15.63
2017-09-28T21:08:47.308Z,15.57
2017-09-28T21:11:24.495Z,15.61
2017-09-28T21:14:03.602Z,15.53
2017-09-28T21:16:38.483Z,15.49
2017-09-28T21:19:12.996Z,15.26
2017-09-28T21:21:47.881Z,15.08
2017-09-28T21:24:28.882Z,15.21
2017-09-28T21:29:47.602Z,15.33
2017-09-28T21:32:22.449Z,15.32
2017-09-28T21:34:55.946Z,15.31
2017-09-28T21:37:54.219Z,15.32
2017-09-28T21:41:05.471Z,15.35
2017-09-28T21:44:08.258Z,15.32
2017-09-28T21:46:44.111Z,15.25
2017-09-28T21:49:15.757Z,15.29
2017-09-28T21:51:51.865Z,15.38
2017-09-28T21:54:28.272Z,15.39
2017-09-28T22:00:10.991Z,15.25
2017-09-28T22:02:48.723Z,15.36
2017-09-28T22:05:32.257Z,15.32
2017-09-28T22:08:08.749Z,15.30
2017-09-28T22:10:43.306Z,15.10
2017-09-28T22:13:19.035Z,15.13
2017-09-28T22:15:52.724Z,15.24
2017-09-28T22:18:25.406Z,15.11
2017-09-28T22:21:02.549Z,15.18
2017-09-28T22:23:41.729Z,15.28
2017-09-28T22:26:15.852Z,15.14
2017-09-28T22:28:49.171Z,15.19
2017-09-28T22:31:26.768Z,15.17
2017-09-28T22:34:04.572Z,15.11
2017-09-28T22:36:39.909Z,15.01
2017-09-28T22:39:14.663Z,14.96
2017-09-28T22:41:49.153Z,15.03
2017-09-28T22:44:23.691Z,15.01
2017-09-28T22:46:55.190Z,14.92
2017-09-28T22:49:31.914Z,14.96
2017-09-28T22:52:07.127Z,14.86
2017-09-28T22:54:49.574Z,14.79
2017-09-28T22:57:21.712Z,14.84
2017-09-28T23:00:00.273Z,14.84
2017-09-28T23:02:44.040Z,14.84
2017-09-28T23:05:17.799Z,14.80
2017-09-28T23:07:52.649Z,14.90
2017-09-28T23:10:27.497Z,14.79
2017-09-28T23:13:07.554Z,14.95
2017-09-28T23:15:39.769Z,14.84
2017-09-28T23:18:13.936Z,14.83
2017-09-28T23:20:48.738Z,14.79
2017-09-28T23:23:30.575Z,14.87
2017-09-28T23:26:04.463Z,14.79
2017-09-28T23:28:40.110Z,14.65
2017-09-28T23:31:13.231Z,14.79
2017-09-28T23:33:47.545Z,14.63
2017-09-28T23:36:19.493Z,14.72
2017-09-28T23:38:54.860Z,14.75
2017-09-28T23:41:33.985Z,14.67
2017-09-28T23:44:07.094Z,14.46
2017-09-28T23:46:38.505Z,14.58
2017-09-28T23:49:11.732Z,14.56
2017-09-28T23:51:44.510Z,14.61
2017-09-28T23:54:16.547Z,14.72
2017-09-28T23:56:49.350Z,14.51
2017-09-28T23:59:21.645Z,14.59
